Time;durP1;ratioP1;P1;durP2;ratioP2;P2;SDS_P1;SDS_P2;PMS_P1;PMS_P2;Temp;Humidity;BMP_temperature;BMP_pressure;BME280_temperature;BME280_humidity;BME280_pressure;Samples;Min_cycle;Max_cycle;Signal;HPM_P1;HPM_P2
2022/01/01 00:02:04;;;;;;;44.50;27.93;;;;;;;12.04;100.00;102234.47;5294932;28;20116;-78
2022/01/01 00:04:35;;;;;;;49.53;31.30;;;;;;;12.03;100.00;102228.34;5299672;28;20119;-75
2022/01/01 00:07:06;;;;;;;45.80;27.50;;;;;;;12.09;100.00;102230.75;5309351;28;20123;-77
2022/01/01 00:09:41;;;;;;;50.10;29.33;;;;;;;12.12;100.00;102240.25;5309235;28;20020;-76
2022/01/01 00:12:12;;;;;;;46.88;29.23;;;;;;;12.10;100.00;102248.19;5297348;28;20402;-74
2022/01/01 00:14:44;;;;;;;45.03;25.00;;;;;;;12.10;100.00;102237.69;5304718;28;20029;-75
2022/01/01 00:17:15;;;;;;;38.70;25.73;;;;;;;12.00;100.00;102243.38;5312999;28;20020;-77
2022/01/01 00:19:46;;;;;;;47.40;26.60;;;;;;;12.09;100.00;102245.66;5309690;28;20065;-74
2022/01/01 00:22:18;;;;;;;54.93;33.87;;;;;;;11.95;100.00;102228.69;5299778;28;20044;-76
2022/01/01 00:24:49;;;;;;;46.10;29.77;;;;;;;12.10;100.00;102236.84;5305953;28;20382;-83
2022/01/01 00:27:20;;;;;;;44.60;24.63;;;;;;;12.08;100.00;102244.75;5294363;28;20509;-82
2022/01/01 00:29:52;;;;;;;32.60;18.27;;;;;;;12.16;100.00;102246.22;5295784;28;20039;-74
2022/01/01 00:32:23;;;;;;;40.00;19.33;;;;;;;12.03;100.00;102251.97;5308871;28;20076;-71
2022/01/01 00:34:55;;;;;;;38.37;20.67;;;;;;;12.03;100.00;102257.22;5310944;28;20031;-71
2022/01/01 00:37:26;;;;;;;40.37;18.47;;;;;;;12.03;100.00;102246.72;5301469;27;20063;-72
2022/01/01 00:39:57;;;;;;;35.97;17.43;;;;;;;12.03;100.00;102251.13;5304805;28;20461;-72
2022/01/01 00:42:28;;;;;;;32.27;16.20;;;;;;;11.99;100.00;102247.78;5311620;28;20485;-74
2022/01/01 00:45:00;;;;;;;38.30;16.90;;;;;;;12.02;100.00;102250.28;5295530;28;20020;-76
2022/01/01 00:47:31;;;;;;;31.73;14.90;;;;;;;12.05;100.00;102237.00;5297611;28;20107;-89
2022/01/01 00:50:03;;;;;;;37.10;16.03;;;;;;;11.96;100.00;102229.53;5301979;28;20040;-84
2022/01/01 00:52:35;;;;;;;33.27;14.37;;;;;;;11.94;100.00;102223.47;5295396;28;20467;-83
2022/01/01 00:55:06;;;;;;;41.20;17.60;;;;;;;12.06;100.00;102230.84;5290298;28;20040;-74
2022/01/01 00:57:39;;;;;;;31.07;15.37;;;;;;;11.96;100.00;102229.53;5289772;28;20028;-83
2022/01/01 01:00:10;;;;;;;41.00;15.90;;;;;;;11.97;100.00;102239.13;5296455;28;20024;-81
2022/01/01 01:02:42;;;;;;;30.57;14.33;;;;;;;11.98;100.00;102243.44;5332147;27;20032;-76
2022/01/01 01:05:13;;;;;;;36.10;14.87;;;;;;;11.94;100.00;102244.50;5312198;28;20398;-79
2022/01/01 01:07:44;;;;;;;32.10;13.43;;;;;;;11.95;100.00;102248.84;5291914;28;20483;-81
2022/01/01 01:10:15;;;;;;;37.70;13.73;;;;;;;11.94;100.00;102249.75;5304127;28;20044;-73
2022/01/01 01:12:48;;;;;;;35.23;13.50;;;;;;;11.92;100.00;102233.22;5301275;28;20032;-73
2022/01/01 01:15:19;;;;;;;43.50;14.30;;;;;;;11.96;100.00;102253.16;5299899;28;20020;-78
2022/01/01 01:17:52;;;;;;;31.83;13.70;;;;;;;11.92;100.00;102244.56;5287940;28;20054;-70
2022/01/01 01:20:25;;;;;;;38.87;14.33;;;;;;;11.84;100.00;102237.03;5308801;27;20047;-77
2022/01/01 01:22:56;;;;;;;28.60;13.37;;;;;;;11.93;100.00;102245.41;5281836;28;20024;-74
2022/01/01 01:25:37;;;;;;;31.33;13.70;;;;;;;11.95;100.00;102243.59;5279719;28;20027;-75
2022/01/01 01:28:09;;;;;;;31.17;13.73;;;;;;;11.94;100.00;102242.72;5290140;28;20112;-72
2022/01/01 01:30:42;;;;;;;34.43;12.53;;;;;;;11.98;100.00;102253.94;5294758;28;20111;-77
2022/01/01 01:33:13;;;;;;;26.93;10.90;;;;;;;11.98;100.00;102243.44;5284624;28;20107;-75
2022/01/01 01:35:44;;;;;;;28.30;11.53;;;;;;;11.94;100.00;102252.38;5281483;28;20027;-72
2022/01/01 01:38:15;;;;;;;27.20;13.40;;;;;;;11.96;100.00;102247.91;5276169;28;20060;-77
2022/01/01 01:40:47;;;;;;;34.90;12.37;;;;;;;11.89;100.00;102242.06;5278933;28;20031;-79
2022/01/01 01:43:19;;;;;;;33.10;11.80;;;;;;;11.91;100.00;102250.75;5294809;28;20032;-77
2022/01/01 01:45:51;;;;;;;31.37;12.30;;;;;;;11.99;100.00;102258.28;5294390;28;20179;-74
2022/01/01 16:42:29;;;;;;;4.83;2.63;;;;;;;11.90;95.76;101955.03;5311067;27;20824;-78
2022/01/01 16:45:08;;;;;;;3.63;2.27;;;;;;;11.96;95.87;101964.38;5313355;28;20379;-80
2022/01/01 16:47:51;;;;;;;6.40;2.90;;;;;;;11.98;95.77;101962.53;5311085;28;20016;-79
2022/01/01 16:50:23;;;;;;;5.60;2.73;;;;;;;11.97;95.99;101966.09;5311163;28;20103;-79
2022/01/01 16:53:02;;;;;;;8.20;3.10;;;;;;;12.01;95.99;101970.25;5311607;28;20744;-78
2022/01/01 16:55:38;;;;;;;4.83;2.37;;;;;;;11.98;95.80;101962.53;5312043;28;20387;-76
2022/01/01 16:58:17;;;;;;;5.47;2.73;;;;;;;12.02;96.12;101961.47;5310847;28;20035;-80
2022/01/01 17:00:50;;;;;;;7.40;2.70;;;;;;;11.90;95.31;101925.28;5312424;28;20036;-80
2022/01/01 17:03:54;;;;;;;6.70;2.53;;;;;;;12.07;96.00;101940.22;5311184;28;20032;-78
2022/01/01 17:06:26;;;;;;;6.10;2.50;;;;;;;12.01;95.17;101930.84;5311715;28;20035;-79
2022/01/01 17:09:00;;;;;;;4.40;2.40;;;;;;;11.97;95.41;101924.91;5333828;27;20027;-77
2022/01/01 17:11:31;;;;;;;4.07;2.38;;;;;;;11.95;95.22;101928.53;5331986;28;20031;-78
2022/01/01 17:14:07;;;;;;;3.47;2.13;;;;;;;12.01;95.07;101925.59;5316225;27;20070;-78
2022/01/01 17:17:03;;;;;;;7.30;2.57;;;;;;;12.06;95.16;101923.59;5299720;28;20026;-78
2022/01/01 17:19:41;;;;;;;4.75;2.78;;;;;;;11.99;94.99;101916.94;5324535;27;20031;-76
2022/01/01 17:22:21;;;;;;;7.20;2.40;;;;;;;11.97;95.25;101905.69;5323178;27;20035;-79
2022/01/01 17:25:09;;;;;;;4.27;2.67;;;;;;;12.02;95.25;101898.44;5307672;28;20051;-78
2022/01/01 17:27:48;;;;;;;5.07;3.03;;;;;;;12.01;94.95;101899.34;5309039;28;20019;-78
2022/01/01 17:30:21;;;;;;;5.10;2.63;;;;;;;11.94;94.98;101906.69;5312097;28;20035;-78
2022/01/01 17:33:16;;;;;;;5.73;2.93;;;;;;;11.84;95.24;101902.81;5309860;28;20262;-78
2022/01/01 17:36:17;;;;;;;7.73;5.10;;;;;;;11.80;95.09;101896.84;5311466;28;20026;-79
2022/01/01 17:41:57;;;;;;;6.87;3.87;;;;;;;11.85;95.23;101915.84;5308497;28;20040;-80
2022/01/01 17:44:29;;;;;;;4.87;3.00;;;;;;;11.78;95.45;101917.06;5309270;28;20020;-81
2022/01/01 17:47:01;;;;;;;6.97;2.90;;;;;;;11.76;95.44;101902.31;5316965;27;20024;-78
2022/01/01 17:49:41;;;;;;;5.30;2.50;;;;;;;11.82;95.65;101913.38;5307248;28;20413;-78
2022/01/01 17:52:16;;;;;;;5.93;3.60;;;;;;;11.80;95.66;101903.91;5304268;28;20043;-80
2022/01/01 17:54:50;;;;;;;5.37;2.93;;;;;;;11.83;95.52;101904.56;5294053;28;20482;-79
2022/01/01 17:57:23;;;;;;;5.63;2.97;;;;;;;11.83;95.61;101912.44;5294441;28;20103;-78
2022/01/01 17:59:56;;;;;;;7.57;3.73;;;;;;;11.77;95.32;101894.38;5296538;28;20046;-80
2022/01/01 18:02:28;;;;;;;6.53;4.07;;;;;;;11.40;95.76;101844.50;5296391;28;20024;-80
2022/01/01 18:04:59;;;;;;;6.40;4.00;;;;;;;11.81;95.44;101876.72;5296165;28;20024;-79
2022/01/01 18:07:36;;;;;;;8.30;4.63;;;;;;;11.77;95.47;101878.63;5294616;28;20028;-79
2022/01/01 18:10:11;;;;;;;7.47;3.73;;;;;;;11.77;95.14;101889.13;5294811;28;20130;-79
2022/01/01 18:12:50;;;;;;;6.90;2.55;;;;;;;11.70;95.79;101877.22;5293177;28;20085;-79
2022/01/01 18:15:22;;;;;;;5.10;2.50;;;;;;;11.83;95.43;101894.06;5293300;28;20024;-82
2022/01/01 18:17:58;;;;;;;5.07;2.37;;;;;;;11.79;95.45;101902.19;5294372;28;20031;-79
2022/01/01 18:20:30;;;;;;;7.57;2.60;;;;;;;11.72;95.44;101889.38;5293964;28;20031;-80
2022/01/01 18:23:07;;;;;;;6.20;2.40;;;;;;;11.83;94.98;101898.50;5295446;28;20032;-80
2022/01/01 18:25:53;;;;;;;4.13;1.80;;;;;;;11.80;95.29;101906.53;5294992;28;20027;-80
2022/01/01 18:28:28;;;;;;;4.80;2.30;;;;;;;11.81;95.25;101909.06;5291640;28;20047;-77
2022/01/01 18:31:04;;;;;;;6.07;3.05;;;;;;;11.84;95.10;101926.44;5295232;28;20027;-77
2022/01/01 18:33:36;;;;;;;4.10;2.60;;;;;;;11.78;94.76;101913.63;5293680;28;20020;-77
2022/01/01 18:36:10;;;;;;;4.07;2.20;;;;;;;11.82;95.09;101916.00;5293636;28;20450;-78
2022/01/01 18:38:42;;;;;;;5.25;2.67;;;;;;;11.69;95.04;101900.00;5293077;28;20027;-79
2022/01/01 18:41:14;;;;;;;5.93;3.10;;;;;;;11.72;95.04;101897.22;5294289;28;20047;-78
2022/01/01 18:43:46;;;;;;;4.93;2.37;;;;;;;11.72;94.81;101891.13;5292733;28;20032;-79
2022/01/01 18:46:18;;;;;;;3.27;2.37;;;;;;;11.71;94.86;101892.06;5293912;28;20027;-79
2022/01/01 18:48:50;;;;;;;4.87;2.73;;;;;;;11.66;94.90;101887.00;5294415;28;20031;-79
2022/01/01 18:51:33;;;;;;;4.80;2.40;;;;;;;11.69;94.72;101883.41;5294373;28;20502;-79
2022/01/01 18:54:07;;;;;;;4.90;2.53;;;;;;;11.70;94.52;101887.72;5294361;28;20036;-79
2022/01/01 18:56:55;;;;;;;8.45;2.60;;;;;;;11.62;95.31;101882.84;5293180;28;20039;-76
2022/01/01 18:59:33;;;;;;;4.27;2.17;;;;;;;11.57;95.30;101862.06;5290267;28;20024;-76
2022/01/01 19:02:06;;;;;;;4.93;2.57;;;;;;;11.60;94.66;101851.44;5294189;28;20040;-76
2022/01/01 19:04:46;;;;;;;5.93;2.27;;;;;;;11.59;95.13;101867.25;5292831;28;20028;-76
2022/01/01 19:07:21;;;;;;;5.20;2.97;;;;;;;11.60;94.88;101861.94;5291069;28;20100;-76
2022/01/01 19:10:00;;;;;;;4.03;2.23;;;;;;;11.62;94.92;101870.56;5293612;28;20028;-76
2022/01/01 19:12:50;;;;;;;3.93;2.53;;;;;;;11.61;95.14;101868.88;5292487;28;20070;-75
2022/01/01 19:15:23;;;;;;;5.47;2.83;;;;;;;11.64;94.94;101877.53;5292195;28;20024;-75
2022/01/01 19:18:01;;;;;;;5.70;2.70;;;;;;;11.61;94.89;101871.50;5293470;28;20040;-76
2022/01/01 19:20:34;;;;;;;3.77;2.40;;;;;;;11.62;94.89;101870.56;5292998;28;20074;-81
2022/01/01 19:23:08;;;;;;;7.77;3.80;;;;;;;11.62;94.82;101861.88;5293720;28;20036;-77
2022/01/01 19:25:45;;;;;;;6.50;5.20;;;;;;;11.55;95.17;101853.44;5294960;28;20016;-84
2022/01/01 19:28:17;;;;;;;6.17;3.37;;;;;;;11.57;94.99;101854.19;5291650;28;20081;-78
2022/01/01 19:30:48;;;;;;;5.47;2.73;;;;;;;11.59;94.38;101844.47;5296827;28;20012;-76
2022/01/01 19:33:21;;;;;;;5.03;2.47;;;;;;;11.51;94.72;101846.63;5299777;28;20448;-77
2022/01/01 19:35:53;;;;;;;4.07;2.57;;;;;;;11.56;94.48;101855.13;5295745;28;20032;-81
2022/01/01 19:38:26;;;;;;;5.63;2.93;;;;;;;11.63;94.10;101863.56;5293891;28;20028;-78
2022/01/01 19:41:03;;;;;;;6.37;2.57;;;;;;;11.59;94.54;101851.53;5292928;28;20181;-84
2022/01/01 19:43:45;;;;;;;5.60;3.40;;;;;;;11.55;94.15;101853.44;5292630;28;20040;-86
2022/01/01 19:46:18;;;;;;;5.50;3.27;;;;;;;11.56;94.11;101854.28;5293723;28;20043;-77
2022/01/01 19:48:52;;;;;;;6.87;3.27;;;;;;;11.49;93.65;101859.81;5292204;28;20028;-80
2022/01/01 19:51:26;;;;;;;;;;;;;;;11.66;94.33;101865.19;5293313;28;20399;-78
2022/01/01 19:53:58;;;;;;;4.63;2.57;;;;;;;11.51;93.60;101838.75;5294683;28;19964;-81
2022/01/01 19:56:32;;;;;;;6.00;2.53;;;;;;;11.51;93.46;101833.50;5294302;28;20036;-77
2022/01/01 19:59:03;;;;;;;4.57;2.50;;;;;;;11.47;93.95;101831.94;5293394;28;20040;-76
2022/01/01 20:01:35;;;;;;;5.57;3.10;;;;;;;11.47;93.94;101842.44;5294103;28;20039;-76
2022/01/01 20:04:06;;;;;;;7.63;3.23;;;;;;;11.44;93.53;101837.34;5292940;28;20505;-77
2022/01/01 20:06:37;;;;;;;7.57;2.50;;;;;;;11.54;93.25;101845.63;5291772;28;20501;-81
2022/01/01 20:09:08;;;;;;;4.63;2.73;;;;;;;11.45;93.37;101846.94;5292852;28;20132;-85
2022/01/01 20:11:40;;;;;;;5.37;2.83;;;;;;;11.42;93.12;101844.44;5291912;28;20067;-79
2022/01/01 20:14:11;;;;;;;5.43;3.07;;;;;;;11.43;93.17;101849.59;5291778;28;20032;-82
2022/01/01 20:16:44;;;;;;;6.13;3.10;;;;;;;11.36;93.13;101837.72;5292386;28;20043;-76
2022/01/01 20:19:15;;;;;;;4.90;2.37;;;;;;;11.41;93.37;101845.38;5293435;28;20028;-77
2022/01/01 20:21:46;;;;;;;3.87;2.30;;;;;;;11.38;92.79;101841.09;5292648;28;20040;-84
2022/01/01 20:24:18;;;;;;;5.47;2.77;;;;;;;11.37;93.33;101845.53;5296138;28;20028;-77
2022/01/01 20:26:49;;;;;;;6.07;2.67;;;;;;;11.38;93.05;101847.22;5295262;28;20103;-77
2022/01/01 20:29:20;;;;;;;3.60;2.20;;;;;;;11.32;92.91;101836.16;5292404;28;20558;-78
2022/01/01 20:31:53;;;;;;;5.07;2.90;;;;;;;11.34;92.65;101850.91;5292750;28;20035;-75
2022/01/01 20:34:24;;;;;;;9.50;3.33;;;;;;;11.34;92.81;101850.06;5292028;28;20020;-79
2022/01/01 20:36:55;;;;;;;5.07;2.70;;;;;;;11.27;92.72;101839.00;5293529;28;20039;-77
2022/01/01 20:39:27;;;;;;;6.30;3.17;;;;;;;11.32;91.94;101837.03;5291677;28;20036;-76
2022/01/01 20:41:58;;;;;;;9.20;3.63;;;;;;;11.30;92.59;101843.25;5290834;28;20051;-77
2022/01/01 20:44:30;;;;;;;5.70;2.67;;;;;;;11.23;92.93;101826.94;5292379;28;20024;-74
2022/01/01 20:47:03;;;;;;;5.93;2.93;;;;;;;11.25;92.75;101830.34;5292201;28;20020;-76
2022/01/01 20:49:34;;;;;;;7.13;3.13;;;;;;;11.26;92.79;101847.78;5286284;28;20032;-78
2022/01/01 20:52:07;;;;;;;5.63;3.33;;;;;;;11.20;92.75;101834.97;5289676;28;20509;-76
2022/01/01 20:54:40;;;;;;;4.53;3.37;;;;;;;11.20;92.46;101829.72;5290977;28;20398;-76
2022/01/01 20:57:11;;;;;;;5.60;2.83;;;;;;;11.20;92.79;101829.72;5292688;28;20060;-80
2022/01/01 20:59:43;;;;;;;5.20;3.20;;;;;;;11.22;92.94;101830.50;5292399;28;20444;-77
2022/01/01 21:02:20;;;;;;;5.83;3.43;;;;;;;11.21;92.83;101806.03;5296084;28;20032;-82
2022/01/01 21:05:00;;;;;;;6.03;2.97;;;;;;;11.20;92.98;101796.50;5302674;28;20426;-77
2022/01/01 21:07:31;;;;;;;5.90;3.23;;;;;;;11.23;92.92;101793.72;5290167;28;20112;-79
2022/01/01 21:10:06;;;;;;;4.80;3.23;;;;;;;11.27;92.57;101788.31;5286312;28;20616;-80
2022/01/01 21:12:41;;;;;;;5.05;3.55;;;;;;;11.30;92.59;101783.78;5298811;28;20020;-77
2022/01/01 21:15:12;;;;;;;5.97;3.40;;;;;;;11.23;92.38;101766.63;5293888;28;20073;-79
2022/01/01 21:17:44;;;;;;;10.13;3.30;;;;;;;11.28;92.35;101782.16;5290576;28;20479;-76
2022/01/01 21:20:16;;;;;;;5.77;3.37;;;;;;;11.24;92.81;101786.72;5292340;28;20034;-80
2022/01/01 21:22:47;;;;;;;5.83;3.80;;;;;;;11.27;92.35;101789.19;5291099;28;20032;-85
2022/01/01 21:25:19;;;;;;;5.90;3.23;;;;;;;11.20;92.23;101775.53;5292906;28;20121;-78
2022/01/01 21:27:50;;;;;;;8.23;3.73;;;;;;;11.26;92.13;101774.34;5296077;28;20039;-79
2022/01/01 21:30:21;;;;;;;7.73;3.97;;;;;;;11.22;92.08;101757.09;5294413;28;20046;-78
2022/01/01 21:32:53;;;;;;;5.10;3.50;;;;;;;11.17;91.98;101759.06;5296579;28;20026;-79
